Time;durP1;ratioP1;P1;durP2;ratioP2;P2;SDS_P1;SDS_P2;PMS_P1;PMS_P2;Temp;Humidity;BMP_temperature;BMP_pressure;BME280_temperature;BME280_humidity;BME280_pressure;Samples;Min_cycle;Max_cycle;Signal;HPM_P1;HPM_P2
2023/04/19 00:01:43;;;;;;;15.98;14.23;;;;;;;8.52;87.46;102585.72;5030246;28;20026;-57
2023/04/19 00:04:08;;;;;;;16.98;15.18;;;;;;;8.57;87.28;102575.78;5025126;28;20022;-57
2023/04/19 00:06:34;;;;;;;16.95;15.15;;;;;;;8.61;87.21;102576.53;5027570;28;20025;-58
2023/04/19 00:09:00;;;;;;;18.10;15.98;;;;;;;8.65;87.00;102570.19;5040175;28;20063;-58
2023/04/19 00:11:25;;;;;;;17.63;14.82;;;;;;;8.69;86.88;102572.66;5049177;28;20076;-55
2023/04/19 00:13:50;;;;;;;16.58;14.43;;;;;;;8.74;86.61;102574.25;5026591;28;20030;-56
2023/04/19 00:16:16;;;;;;;17.45;15.50;;;;;;;8.77;86.52;102568.84;5045996;28;20486;-58
2023/04/19 00:18:41;;;;;;;18.10;15.80;;;;;;;8.78;86.49;102562.63;5035257;28;20033;-55
2023/04/19 00:21:07;;;;;;;17.48;15.50;;;;;;;8.81;86.39;102562.47;5039634;28;20498;-56
2023/04/19 00:23:32;;;;;;;17.10;14.60;;;;;;;8.84;86.25;102568.53;5028237;28;20108;-54
2023/04/19 00:25:57;;;;;;;17.55;15.23;;;;;;;8.85;86.11;102570.22;5033934;28;20036;-58
2023/04/19 00:28:24;;;;;;;17.40;15.38;;;;;;;8.87;86.14;102571.03;5028354;28;20053;-57
2023/04/19 00:30:49;;;;;;;16.55;14.65;;;;;;;8.91;86.06;102560.28;5037904;28;20071;-58
2023/04/19 00:33:14;;;;;;;19.05;15.25;;;;;;;8.94;85.80;102562.81;5035680;28;20029;-54
2023/04/19 00:35:43;;;;;;;17.67;15.88;;;;;;;8.95;85.69;102568.06;5032387;28;20051;-58
2023/04/19 00:38:09;;;;;;;16.75;14.93;;;;;;;8.98;85.42;102561.78;5040419;28;20462;-58
2023/04/19 00:40:36;;;;;;;17.48;15.48;;;;;;;9.00;85.42;102562.56;5041751;28;20045;-58
2023/04/19 00:43:01;;;;;;;17.50;15.70;;;;;;;9.01;85.65;102559.84;5041245;28;20364;-57
2023/04/19 00:45:27;;;;;;;18.40;15.15;;;;;;;9.02;85.36;102566.88;5027988;28;20047;-57
2023/04/19 00:47:52;;;;;;;18.13;15.20;;;;;;;9.04;85.45;102559.72;5035343;28;20053;-55
2023/04/19 00:50:18;;;;;;;18.60;16.17;;;;;;;9.06;85.51;102564.97;5036252;28;20025;-57
2023/04/19 00:52:45;;;;;;;16.67;14.48;;;;;;;9.07;85.57;102558.72;5024438;28;20088;-57
2023/04/19 00:55:10;;;;;;;19.00;15.68;;;;;;;9.10;85.29;102555.94;5034246;28;20025;-57
2023/04/19 00:57:36;;;;;;;17.75;15.85;;;;;;;9.11;85.34;102560.34;5026333;28;20064;-57
2023/04/19 01:00:05;;;;;;;17.98;15.50;;;;;;;9.13;85.36;102558.47;5024997;28;20493;-57
2023/04/19 01:02:31;;;;;;;19.87;15.77;;;;;;;9.15;85.33;102563.72;5028716;28;20037;-53
2023/04/19 01:04:56;;;;;;;17.70;15.80;;;;;;;9.15;85.16;102555.75;5028795;28;20044;-57
2023/04/19 01:07:21;;;;;;;18.17;15.13;;;;;;;9.17;85.10;102557.41;5041580;28;20052;-58
2023/04/19 01:09:47;;;;;;;18.48;15.52;;;;;;;9.22;85.06;102558.06;5031497;28;20028;-58
2023/04/19 01:12:13;;;;;;;18.98;15.52;;;;;;;9.22;85.09;102562.50;5028146;28;20051;-56
2023/04/19 01:14:39;;;;;;;18.70;15.38;;;;;;;9.24;85.16;102560.66;5024470;28;20111;-57
2023/04/19 01:17:06;;;;;;;20.55;16.60;;;;;;;9.24;85.29;102556.22;5051580;28;20482;-57
2023/04/19 01:19:33;;;;;;;19.90;16.52;;;;;;;9.25;85.44;102551.78;5035195;28;20028;-55
2023/04/19 01:21:58;;;;;;;19.90;15.82;;;;;;;9.27;85.31;102560.50;5033072;28;20492;-58
2023/04/19 01:24:24;;;;;;;20.38;15.48;;;;;;;9.29;85.42;102555.16;5043518;28;20108;-56
2023/04/19 01:26:49;;;;;;;17.98;15.55;;;;;;;9.29;85.59;102555.16;5039726;28;20052;-56
2023/04/19 01:29:14;;;;;;;18.17;15.80;;;;;;;9.29;85.77;102556.00;5037997;28;20029;-57
2023/04/19 01:31:40;;;;;;;19.88;16.05;;;;;;;9.30;85.77;102554.22;5043299;28;20100;-56
2023/04/19 01:34:05;;;;;;;17.48;15.07;;;;;;;9.30;85.73;102560.38;5045198;28;20025;-57
2023/04/19 01:36:30;;;;;;;19.10;15.35;;;;;;;9.31;85.82;102559.47;5036441;28;20372;-53
2023/04/19 01:38:56;;;;;;;19.67;15.55;;;;;;;9.31;85.63;102555.94;5043812;28;20017;-57
2023/04/19 01:41:25;;;;;;;17.92;14.95;;;;;;;9.33;85.76;102557.59;5034960;28;20463;-57
2023/04/19 01:43:51;;;;;;;17.00;14.93;;;;;;;9.33;85.87;102554.94;5042549;28;20515;-55
2023/04/19 01:46:16;;;;;;;18.25;15.35;;;;;;;9.34;85.77;102547.84;5035503;28;20109;-56
2023/04/19 01:48:41;;;;;;;18.77;15.65;;;;;;;9.35;85.95;102557.53;5043519;28;20052;-58
2023/04/19 01:51:06;;;;;;;17.23;14.65;;;;;;;9.35;86.16;102552.25;5041049;28;20061;-58
2023/04/19 01:53:32;;;;;;;19.77;15.55;;;;;;;9.36;86.13;102552.16;5045056;28;20513;-53
2023/04/19 01:55:57;;;;;;;17.63;15.73;;;;;;;9.36;86.28;102552.16;5046862;28;20086;-57
2023/04/19 01:58:22;;;;;;;19.13;15.93;;;;;;;9.37;86.53;102547.72;5045281;28;20032;-55
2023/04/19 02:00:47;;;;;;;22.70;15.68;;;;;;;9.37;86.42;102547.72;5045298;28;20421;-55
2023/04/19 02:03:13;;;;;;;17.98;14.68;;;;;;;9.39;86.81;102535.25;5012896;28;20022;-56
2023/04/19 02:05:38;;;;;;;20.02;16.05;;;;;;;9.38;86.91;102537.03;5032652;28;20052;-55
2023/04/19 02:08:04;;;;;;;20.17;15.82;;;;;;;9.40;86.95;102535.19;5022656;28;20029;-55
2023/04/19 02:10:29;;;;;;;20.00;15.57;;;;;;;9.42;87.03;102527.16;5028427;28;20033;-55
2023/04/19 02:12:54;;;;;;;19.52;15.52;;;;;;;9.43;87.22;102529.75;5031207;28;20499;-58
2023/04/19 02:15:20;;;;;;;21.83;15.65;;;;;;;9.44;87.05;102528.81;5045855;28;20030;-56
2023/04/19 02:17:45;;;;;;;19.42;15.45;;;;;;;9.47;87.28;102525.16;5040936;28;20079;-57
2023/04/19 02:20:10;;;;;;;20.00;15.88;;;;;;;9.49;87.32;102525.94;5022344;28;20041;-56
2023/04/19 02:22:36;;;;;;;18.75;16.02;;;;;;;9.51;86.93;102520.56;5049137;28;20290;-58
2023/04/19 02:25:01;;;;;;;18.63;15.02;;;;;;;9.52;87.34;102519.66;5028562;28;20038;-57
2023/04/19 02:27:27;;;;;;;17.65;15.75;;;;;;;9.55;87.62;102522.16;5021149;28;20026;-57
2023/04/19 02:29:53;;;;;;;18.70;15.77;;;;;;;9.55;87.58;102523.03;5012517;28;20503;-56
2023/04/19 02:32:18;;;;;;;18.13;15.40;;;;;;;9.58;87.65;102522.88;5031461;28;20079;-56
2023/04/19 02:34:43;;;;;;;18.83;15.90;;;;;;;9.60;87.64;102522.81;5030031;28;20029;-55
2023/04/19 02:37:09;;;;;;;17.45;15.55;;;;;;;9.60;87.83;102521.00;5019412;28;20032;-58
2023/04/19 02:39:34;;;;;;;22.05;15.93;;;;;;;9.63;87.65;102522.69;5030863;28;20087;-54
2023/04/19 02:42:00;;;;;;;20.33;15.93;;;;;;;9.63;87.66;102523.53;5031334;28;20441;-53
2023/04/19 02:44:26;;;;;;;18.38;15.65;;;;;;;9.64;87.87;102524.38;5017349;28;20711;-55
2023/04/19 02:46:52;;;;;;;18.65;14.98;;;;;;;9.64;87.94;102524.38;5041866;28;20018;-56
2023/04/19 02:49:18;;;;;;;19.23;15.70;;;;;;;9.67;88.01;102528.72;5031219;28;20615;-56
2023/04/19 02:51:44;;;;;;;20.65;15.48;;;;;;;9.67;87.83;102523.41;5031171;28;20083;-58
2023/04/19 02:54:10;;;;;;;20.85;15.70;;;;;;;9.68;88.22;102523.34;5048177;28;20295;-61
2023/04/19 02:56:35;;;;;;;21.85;16.17;;;;;;;9.67;88.34;102520.75;5037405;28;20029;-56
2023/04/19 02:59:03;;;;;;;17.75;15.27;;;;;;;9.68;88.09;102523.34;5046518;28;20036;-57
2023/04/19 03:01:29;;;;;;;20.00;15.82;;;;;;;9.69;88.22;102534.78;5018084;28;20034;-55
2023/04/19 03:03:54;;;;;;;18.13;15.35;;;;;;;9.70;88.17;102531.22;5028603;28;20128;-56
2023/04/19 03:06:19;;;;;;;17.75;14.95;;;;;;;9.70;88.45;102528.56;5030947;28;20029;-57
2023/04/19 03:08:45;;;;;;;18.40;15.80;;;;;;;9.69;88.46;102533.03;5029612;28;20060;-55
2023/04/19 03:11:11;;;;;;;18.27;15.30;;;;;;;9.69;88.78;102525.06;5021865;28;20053;-57
2023/04/19 03:13:38;;;;;;;21.40;15.27;;;;;;;9.69;88.79;102519.75;5023814;28;20053;-57
2023/04/19 03:16:04;;;;;;;17.77;15.13;;;;;;;9.70;88.93;102532.06;5017546;28;20030;-54
2023/04/19 03:18:29;;;;;;;19.15;15.13;;;;;;;9.70;88.86;102528.56;5031192;28;20025;-53
2023/04/19 03:20:55;;;;;;;18.88;14.75;;;;;;;9.68;89.03;102525.97;5022954;28;20025;-57
2023/04/19 03:23:20;;;;;;;20.98;15.32;;;;;;;9.67;89.40;102526.06;5019422;28;20064;-54
2023/04/19 03:25:45;;;;;;;17.30;14.98;;;;;;;9.64;89.80;102516.44;5031010;28;20029;-58
2023/04/19 03:28:11;;;;;;;18.50;14.88;;;;;;;9.63;89.66;102522.69;5030787;28;20021;-58
2023/04/19 03:30:36;;;;;;;18.80;14.20;;;;;;;9.62;89.92;102521.81;5026067;28;20025;-55
2023/04/19 03:33:01;;;;;;;20.85;15.23;;;;;;;9.61;89.90;102514.78;5029246;28;20021;-56
2023/04/19 03:35:28;;;;;;;17.33;13.77;;;;;;;9.58;90.09;102520.22;5023420;28;20506;-57
2023/04/19 03:37:53;;;;;;;19.63;14.02;;;;;;;9.57;90.01;102513.19;5026375;28;20959;-57
2023/04/19 03:40:19;;;;;;;17.25;14.45;;;;;;;9.57;89.88;102505.22;5022503;28;20376;-57
2023/04/19 03:42:44;;;;;;;17.80;13.95;;;;;;;9.56;89.88;102503.53;5037442;28;20017;-53
2023/04/19 03:45:10;;;;;;;18.17;13.95;;;;;;;9.55;89.75;102506.25;5033157;28;20021;-56
2023/04/19 03:47:35;;;;;;;17.38;13.90;;;;;;;9.53;89.70;102502.81;5017995;28;20505;-57
2023/04/19 03:50:00;;;;;;;16.48;14.10;;;;;;;9.54;89.87;102507.16;5031828;28;20025;-58
2023/04/19 03:52:26;;;;;;;16.02;13.80;;;;;;;9.53;89.80;102510.78;5023517;28;20136;-54
2023/04/19 03:54:51;;;;;;;16.30;13.07;;;;;;;9.52;89.97;102504.59;5031618;28;20426;-57
2023/04/19 03:57:16;;;;;;;17.90;14.05;;;;;;;9.52;90.32;102507.25;5029816;28;20033;-58
2023/04/19 03:59:42;;;;;;;20.85;14.07;;;;;;;9.53;89.96;102510.78;5030678;28;20052;-57
2023/04/19 04:02:07;;;;;;;15.35;12.85;;;;;;;9.53;90.18;102510.78;5044134;28;20034;-56
2023/04/19 04:04:33;;;;;;;15.88;13.65;;;;;;;9.53;89.98;102518.72;5035680;28;20033;-55
2023/04/19 04:06:58;;;;;;;17.40;13.68;;;;;;;9.51;89.99;102515.25;5030022;28;20036;-56
2023/04/19 04:09:23;;;;;;;16.77;14.00;;;;;;;9.49;90.45;102520.63;5033130;28;20026;-57
2023/04/19 04:11:48;;;;;;;17.65;13.98;;;;;;;9.47;90.34;102514.53;5036612;28;20049;-57
2023/04/19 04:14:14;;;;;;;16.30;13.48;;;;;;;9.45;90.28;102511.13;5047463;28;20032;-58
2023/04/19 04:16:39;;;;;;;17.38;12.88;;;;;;;9.44;90.05;102512.03;5029038;28;20032;-58
2023/04/19 04:19:05;;;;;;;19.65;13.30;;;;;;;9.41;90.38;102505.09;5033784;28;20125;-56
2023/04/19 04:21:30;;;;;;;17.42;12.38;;;;;;;9.42;90.06;102511.25;5037500;28;20463;-57
2023/04/19 04:23:56;;;;;;;16.35;12.70;;;;;;;9.39;89.98;102506.97;5034467;28;20060;-56
2023/04/19 04:26:24;;;;;;;14.00;12.48;;;;;;;9.38;89.93;102510.53;5021501;28;20117;-57
2023/04/19 04:28:49;;;;;;;16.95;13.05;;;;;;;9.36;90.05;102520.34;5033881;28;20025;-56
2023/04/19 04:31:16;;;;;;;15.52;12.40;;;;;;;9.34;89.90;102516.91;5034422;28;20532;-55
2023/04/19 04:33:43;;;;;;;17.67;12.98;;;;;;;9.31;90.00;102514.41;5027182;28;20026;-57
2023/04/19 04:36:10;;;;;;;16.27;12.07;;;;;;;9.29;90.09;102518.88;5019643;28;20117;-58
2023/04/19 04:38:36;;;;;;;14.25;12.23;;;;;;;9.28;89.88;102522.47;5025225;28;20040;-58
2023/04/19 04:41:01;;;;;;;19.90;12.80;;;;;;;9.27;89.87;102523.41;5034642;28;20390;-56
2023/04/19 04:43:28;;;;;;;14.70;11.65;;;;;;;9.25;89.99;102522.59;5037955;28;20056;-56
2023/04/19 04:45:55;;;;;;;14.43;12.35;;;;;;;9.24;90.07;102528.81;5033848;28;20471;-54
2023/04/19 04:48:21;;;;;;;12.65;11.30;;;;;;;9.23;89.64;102521.81;5046419;28;20021;-55
2023/04/19 04:50:46;;;;;;;15.75;11.57;;;;;;;9.22;89.62;102520.09;5045364;28;20036;-57
2023/04/19 04:53:12;;;;;;;15.02;11.90;;;;;;;9.19;89.64;102526.41;5046907;28;20478;-55
2023/04/19 04:55:37;;;;;;;13.57;11.05;;;;;;;9.16;89.74;102523.00;5039553;28;20037;-55
2023/04/19 04:58:04;;;;;;;12.88;11.35;;;;;;;9.16;89.42;102530.94;5047161;28;20055;-58
2023/04/19 05:00:30;;;;;;;14.77;11.10;;;;;;;9.15;89.54;102540.69;5037260;28;20032;-56
2023/04/19 05:02:56;;;;;;;13.45;11.15;;;;;;;9.13;89.08;102539.91;5045749;28;20033;-54
2023/04/19 05:05:21;;;;;;;13.32;10.95;;;;;;;9.09;88.76;102530.34;5050833;28;20600;-55
2023/04/19 05:07:46;;;;;;;11.13;9.65;;;;;;;9.06;88.22;102549.91;5016126;28;20032;-57
2023/04/19 05:10:12;;;;;;;12.82;10.43;;;;;;;9.03;88.04;102547.41;5015947;28;20415;-55
2023/04/19 05:12:37;;;;;;;12.48;9.55;;;;;;;9.01;87.70;102546.59;5025824;28;20026;-58
2023/04/19 05:15:03;;;;;;;12.40;9.35;;;;;;;8.97;87.73;102546.78;5032357;28;20065;-54
2023/04/19 05:17:28;;;;;;;13.23;9.68;;;;;;;8.94;87.84;102554.88;5036810;28;20513;-58
2023/04/19 05:19:53;;;;;;;13.68;8.90;;;;;;;8.89;87.79;102548.00;5024863;28;20029;-56
2023/04/19 05:22:18;;;;;;;15.45;9.00;;;;;;;8.89;87.50;102549.75;5034699;28;20018;-58
2023/04/19 05:24:44;;;;;;;11.70;8.88;;;;;;;8.89;87.10;102547.09;5033298;28;20367;-55
2023/04/19 05:27:10;;;;;;;9.27;8.23;;;;;;;8.86;86.87;102550.78;5025949;28;20058;-54
2023/04/19 05:29:35;;;;;;;12.38;9.10;;;;;;;8.85;86.71;102550.84;5030290;28;20041;-56
2023/04/19 05:32:00;;;;;;;9.48;7.93;;;;;;;8.85;86.41;102551.69;5022894;28;20056;-57
2023/04/19 05:34:26;;;;;;;10.63;8.18;;;;;;;8.80;86.83;102551.00;5028613;28;20034;-58
2023/04/19 05:36:51;;;;;;;11.85;8.73;;;;;;;8.81;86.54;102550.09;5023123;28;20037;-58
2023/04/19 05:39:16;;;;;;;15.77;9.20;;;;;;;8.78;86.57;102547.56;5024697;28;20030;-55
2023/04/19 05:41:42;;;;;;;12.95;8.90;;;;;;;8.78;86.83;102550.22;5027831;28;20550;-56
2023/04/19 05:44:07;;;;;;;11.20;9.13;;;;;;;8.77;86.52;102553.78;5037815;28;20036;-55
2023/04/19 05:46:32;;;;;;;15.10;9.50;;;;;;;8.76;86.78;102554.72;5042132;28;20505;-56
2023/04/19 05:48:58;;;;;;;11.93;8.60;;;;;;;8.76;86.85;102548.56;5014682;28;20042;-56
2023/04/19 05:51:23;;;;;;;10.23;9.05;;;;;;;8.77;86.72;102550.28;5028656;28;20068;-54
2023/04/19 05:53:48;;;;;;;10.55;8.75;;;;;;;8.76;86.86;102549.44;5027581;28;20037;-58
2023/04/19 05:56:14;;;;;;;11.35;8.90;;;;;;;8.75;86.41;102541.56;5016132;28;20032;-55
2023/04/19 05:58:39;;;;;;;11.13;9.18;;;;;;;8.74;86.29;102553.06;5023096;28;20559;-54
2023/04/19 06:01:05;;;;;;;14.85;8.85;;;;;;;8.73;86.29;102553.97;5014767;28;20022;-58
2023/04/19 06:03:32;;;;;;;13.45;9.27;;;;;;;8.73;86.21;102553.97;5018827;28;20045;-56
2023/04/19 06:05:57;;;;;;;10.38;9.27;;;;;;;8.71;86.38;102556.72;5021231;28;20113;-58
2023/04/19 06:08:22;;;;;;;11.05;8.93;;;;;;;8.72;86.39;102561.06;5028831;28;20467;-58
2023/04/19 06:10:48;;;;;;;9.38;8.38;;;;;;;8.71;85.57;102562.00;5030649;28;20566;-55
2023/04/19 06:13:14;;;;;;;11.88;8.80;;;;;;;8.70;85.81;102562.94;5034752;28;20097;-56
2023/04/19 06:15:40;;;;;;;10.77;8.85;;;;;;;8.72;85.65;102562.88;5034357;28;20045;-58
2023/04/19 06:18:08;;;;;;;10.52;8.60;;;;;;;8.71;85.23;102559.38;5031047;28;20478;-58
2023/04/19 06:20:35;;;;;;;11.82;8.57;;;;;;;8.76;85.10;102565.34;5028881;28;20136;-56
2023/04/19 06:23:00;;;;;;;11.70;8.52;;;;;;;8.79;84.88;102561.69;5033432;28;20069;-54
2023/04/19 06:25:26;;;;;;;10.45;7.90;;;;;;;8.84;83.53;102562.34;5023021;28;20126;-55
2023/04/19 06:27:51;;;;;;;9.77;8.45;;;;;;;8.89;83.56;102563.91;5040716;28;20040;-55
2023/04/19 06:30:16;;;;;;;9.35;7.85;;;;;;;8.92;82.37;102557.59;5034047;28;20020;-55
2023/04/19 06:32:42;;;;;;;12.60;8.30;;;;;;;8.98;81.91;102561.78;5025441;28;20044;-57
2023/04/19 06:35:07;;;;;;;11.20;7.75;;;;;;;9.02;81.36;102561.56;5022976;28;20030;-54
2023/04/19 06:37:33;;;;;;;10.30;7.95;;;;;;;9.08;81.29;102553.38;5026967;28;20036;-57
2023/04/19 06:39:59;;;;;;;11.20;8.48;;;;;;;9.17;79.84;102559.19;5032204;28;20393;-57
2023/04/19 06:42:26;;;;;;;9.60;7.60;;;;;;;9.20;78.30;102551.97;5022635;28;20037;-57
2023/04/19 06:44:51;;;;;;;20.08;8.30;;;;;;;9.25;76.57;102555.28;5022260;28;20114;-57
2023/04/19 06:47:16;;;;;;;11.23;7.47;;;;;;;9.31;76.69;102550.63;5018647;28;20355;-55
2023/04/19 06:49:42;;;;;;;11.68;7.90;;;;;;;9.41;76.13;102546.66;5014500;28;20513;-57
2023/04/19 06:52:07;;;;;;;14.85;7.78;;;;;;;9.46;74.27;102544.69;5028062;28;20034;-58
2023/04/19 06:54:32;;;;;;;9.00;7.32;;;;;;;9.51;73.99;102541.78;5026471;28;20041;-57
2023/04/19 06:56:57;;;;;;;10.00;7.47;;;;;;;9.59;73.34;102552.91;5028550;28;20406;-58
2023/04/19 06:59:27;;;;;;;10.15;7.55;;;;;;;9.68;72.43;102549.88;5032103;28;20053;-55
2023/04/19 07:01:52;;;;;;;11.15;6.97;;;;;;;9.78;72.24;102543.19;5046916;28;20525;-57
2023/04/19 07:04:17;;;;;;;10.43;7.13;;;;;;;9.94;71.44;102555.75;5030539;28;20068;-54
2023/04/19 07:06:43;;;;;;;10.82;7.45;;;;;;;10.09;70.52;102546.22;5039943;28;20032;-54
2023/04/19 07:09:08;;;;;;;9.00;6.97;;;;;;;10.26;69.75;102554.25;5034797;28;20453;-55
2023/04/19 07:11:33;;;;;;;8.75;6.75;;;;;;;10.40;68.14;102555.41;5024671;28;20084;-54
2023/04/19 07:14:01;;;;;;;8.68;6.80;;;;;;;10.53;67.65;102553.88;5031291;28;20033;-56
2023/04/19 07:16:27;;;;;;;10.52;6.85;;;;;;;10.68;66.61;102555.78;5026948;28;20049;-58
2023/04/19 07:18:52;;;;;;;7.45;6.30;;;;;;;10.84;65.42;102557.66;5022514;28;20121;-54
2023/04/19 07:21:18;;;;;;;7.78;6.70;;;;;;;11.01;65.27;102549.69;5020217;28;20026;-57
2023/04/19 07:23:43;;;;;;;12.55;6.88;;;;;;;11.22;66.13;102552.19;5022269;28;20423;-57
2023/04/19 07:26:08;;;;;;;10.23;6.53;;;;;;;11.35;63.12;102547.94;5024820;28;20033;-55
2023/04/19 07:28:34;;;;;;;10.35;6.05;;;;;;;11.48;62.60;102548.16;5025877;28;20045;-58
2023/04/19 07:30:59;;;;;;;9.98;6.97;;;;;;;11.59;62.11;102553.78;5011654;28;20043;-55
2023/04/19 07:33:26;;;;;;;10.23;5.88;;;;;;;11.68;60.88;102549.75;5030517;28;20060;-57
2023/04/19 07:35:52;;;;;;;8.55;6.10;;;;;;;11.85;61.19;102551.50;5029779;28;20060;-55
2023/04/19 07:38:18;;;;;;;8.80;5.88;;;;;;;11.95;59.87;102546.56;5034124;28;20057;-57
2023/04/19 07:40:43;;;;;;;7.40;6.20;;;;;;;12.05;59.32;102545.09;5032390;28;20542;-58
2023/04/19 07:43:08;;;;;;;8.98;6.28;;;;;;;12.15;58.03;102543.63;5029563;28;20045;-56
2023/04/19 07:45:34;;;;;;;8.07;5.35;;;;;;;12.32;58.99;102545.38;5024042;28;20523;-55
2023/04/19 07:47:59;;;;;;;10.07;5.68;;;;;;;12.41;56.27;102549.31;5038460;28;20087;-57
2023/04/19 07:50:25;;;;;;;11.57;6.03;;;;;;;12.55;56.18;102544.03;5023274;28;20411;-56
2023/04/19 07:52:51;;;;;;;10.35;6.07;;;;;;;12.64;54.42;102539.09;5029678;28;20437;-56
2023/04/19 07:55:16;;;;;;;7.13;6.03;;;;;;;12.70;55.15;102528.94;5032537;28;20026;-55
2023/04/19 07:57:45;;;;;;;8.95;6.00;;;;;;;12.82;54.43;102532.69;5035608;28;20033;-54
2023/04/19 08:00:11;;;;;;;7.50;5.60;;;;;;;12.90;54.23;102535.75;5034036;28;20422;-55
2023/04/19 08:02:37;;;;;;;6.25;5.53;;;;;;;13.02;53.80;102526.16;5034822;28;20029;-54
2023/04/19 08:05:02;;;;;;;7.63;6.30;;;;;;;13.24;54.17;102538.22;5033804;28;20029;-58
2023/04/19 08:07:28;;;;;;;11.68;5.78;;;;;;;13.38;52.50;102529.41;5039642;28;20275;-55
2023/04/19 08:09:53;;;;;;;6.47;5.72;;;;;;;13.46;51.64;102525.31;5038601;28;20057;-57
2023/04/19 08:12:18;;;;;;;11.05;5.80;;;;;;;13.62;52.31;102529.69;5032463;28;20013;-57
2023/04/19 08:14:45;;;;;;;8.45;5.80;;;;;;;13.77;51.82;102526.06;5032112;28;20063;-58
2023/04/19 08:17:10;;;;;;;8.93;6.05;;;;;;;13.93;50.61;102538.44;5037879;28;20026;-56
2023/04/19 08:19:36;;;;;;;9.57;6.00;;;;;;;13.99;50.28;102524.66;5034593;28;20065;-57
2023/04/19 08:22:03;;;;;;;12.23;6.18;;;;;;;14.10;50.94;102524.84;5034842;28;20124;-53
2023/04/19 08:24:30;;;;;;;8.50;5.63;;;;;;;14.21;49.86;102525.00;5027668;28;20034;-53
2023/04/19 08:26:55;;;;;;;6.93;5.40;;;;;;;14.37;49.63;102522.19;5022150;28;20087;-53
2023/04/19 08:29:21;;;;;;;10.43;5.85;;;;;;;14.48;48.36;102513.44;5017532;28;20022;-55
2023/04/19 08:31:46;;;;;;;7.32;5.80;;;;;;;14.55;48.27;102525.44;5023054;28;20029;-55
2023/04/19 08:34:11;;;;;;;8.57;5.32;;;;;;;14.72;47.60;102515.47;5027537;28;20041;-55
2023/04/19 08:36:37;;;;;;;7.82;5.70;;;;;;;14.78;46.42;102515.91;5023246;28;20037;-57
2023/04/19 08:39:02;;;;;;;10.27;5.45;;;;;;;14.89;46.66;102525.91;5035401;28;20084;-54
2023/04/19 08:41:29;;;;;;;8.32;6.03;;;;;;;14.99;46.11;102518.09;5023526;28;20032;-55
2023/04/19 08:43:55;;;;;;;9.48;6.25;;;;;;;15.02;45.23;102517.00;5037755;28;20459;-56
2023/04/19 08:46:23;;;;;;;8.23;5.22;;;;;;;15.01;44.46;102513.50;5024625;28;20053;-54
2023/04/19 08:48:49;;;;;;;6.22;5.15;;;;;;;15.23;46.29;102518.22;5022897;28;20064;-57
2023/04/19 08:51:16;;;;;;;8.93;5.47;;;;;;;15.32;44.82;102512.22;5027296;28;20151;-59
2023/04/19 08:53:42;;;;;;;9.85;5.43;;;;;;;15.50;43.77;102509.19;5017256;28;20060;-56
2023/04/19 08:56:09;;;;;;;7.22;5.35;;;;;;;15.49;41.95;102499.47;5031774;28;20037;-56
2023/04/19 08:58:35;;;;;;;8.70;5.93;;;;;;;15.59;42.12;102513.91;5023473;28;20030;-57
2023/04/19 09:01:03;;;;;;;13.82;5.85;;;;;;;15.85;42.83;102500.47;5035063;28;20029;-55
2023/04/19 09:03:29;;;;;;;10.32;5.60;;;;;;;16.06;42.46;102511.47;5036965;28;20363;-56
2023/04/19 09:05:54;;;;;;;9.40;5.65;;;;;;;16.20;41.21;102502.38;5038568;28;20048;-57
2023/04/19 09:08:26;;;;;;;6.43;5.45;;;;;;;16.35;41.04;102500.41;5026053;28;20029;-57
2023/04/19 09:10:53;;;;;;;8.75;5.22;;;;;;;16.36;39.72;102502.97;5034209;28;20494;-57
2023/04/19 09:13:19;;;;;;;7.30;4.70;;;;;;;16.39;39.97;102496.53;5033671;28;20033;-57
2023/04/19 09:15:44;;;;;;;5.75;4.95;;;;;;;16.71;40.49;102504.81;5024679;28;20052;-56
2023/04/19 09:18:10;;;;;;;9.70;4.97;;;;;;;16.78;40.01;102500.66;5012022;28;20040;-56
2023/04/19 09:20:38;;;;;;;7.82;4.82;;;;;;;16.99;39.55;102497.34;5018293;28;20071;-56
2023/04/19 09:23:05;;;;;;;5.70;4.45;;;;;;;17.09;38.49;102498.34;5013732;28;20373;-55
2023/04/19 09:25:30;;;;;;;5.32;4.43;;;;;;;17.22;37.80;102495.56;5013203;28;20030;-57
2023/04/19 09:28:08;;;;;;;7.70;4.65;;;;;;;17.19;38.16;102496.66;5040755;28;20440;-56
2023/04/19 09:30:34;;;;;;;4.53;3.95;;;;;;;17.28;37.24;102495.06;5040718;28;20033;-57
2023/04/19 09:32:59;;;;;;;6.13;4.22;;;;;;;17.32;37.15;102501.91;5026945;28;20544;-56
2023/04/19 09:35:47;;;;;;;4.75;3.90;;;;;;;17.45;38.11;102495.56;5018753;28;20423;-57
2023/04/19 09:38:13;;;;;;;5.90;3.60;;;;;;;17.32;35.64;102493.84;5028144;28;20090;-56
2023/04/19 09:40:39;;;;;;;7.65;4.30;;;;;;;17.16;35.28;102496.03;5039863;28;20021;-55
2023/04/19 09:43:05;;;;;;;5.85;3.72;;;;;;;17.16;34.45;102490.66;5030366;28;20053;-53
2023/04/19 09:45:45;;;;;;;7.57;3.67;;;;;;;17.31;36.96;102488.59;5030229;28;20470;-52
2023/04/19 09:48:11;;;;;;;6.90;3.65;;;;;;;17.57;36.37;102483.84;5028504;28;20091;-51
2023/04/19 09:50:57;;;;;;;5.35;3.72;;;;;;;17.61;35.58;102497.88;5015279;28;20049;-54
2023/04/19 09:53:23;;;;;;;4.93;3.33;;;;;;;17.50;34.21;102483.47;5022223;28;20513;-51
2023/04/19 09:55:49;;;;;;;4.82;3.10;;;;;;;17.57;34.43;102484.69;5028325;28;20028;-54
2023/04/19 09:58:15;;;;;;;4.88;3.67;;;;;;;17.67;33.44;102484.81;5029942;28;20026;-51
2023/04/19 10:00:43;;;;;;;4.97;3.47;;;;;;;17.66;32.70;102490.28;5030041;28;20034;-52
2023/04/19 10:03:09;;;;;;;7.03;3.42;;;;;;;17.60;33.19;102485.41;5021589;28;20355;-52
2023/04/19 10:05:39;;;;;;;7.80;3.50;;;;;;;17.55;33.97;102483.09;5031747;28;20379;-51
2023/04/19 10:08:06;;;;;;;5.47;3.58;;;;;;;17.51;33.31;102487.00;5021994;28;20064;-54
2023/04/19 10:10:32;;;;;;;8.23;3.63;;;;;;;17.61;32.95;102482.59;5021620;28;20045;-54
2023/04/19 10:12:58;;;;;;;4.57;3.08;;;;;;;17.49;31.15;102495.19;5010613;28;20086;-52
2023/04/19 10:15:26;;;;;;;3.85;3.08;;;;;;;17.58;31.33;102496.28;5027073;28;20030;-54
2023/04/19 10:17:51;;;;;;;7.07;3.10;;;;;;;17.81;31.27;102491.75;5038122;28;20131;-54
2023/04/19 10:20:32;;;;;;;6.18;3.15;;;;;;;17.81;32.68;102483.66;5020246;28;20022;-52
2023/04/19 10:22:59;;;;;;;5.82;3.42;;;;;;;17.76;31.54;102484.03;5013483;28;20045;-52
2023/04/19 10:25:28;;;;;;;5.22;3.05;;;;;;;17.86;32.82;102481.47;5018890;28;20206;-54
2023/04/19 10:27:54;;;;;;;7.60;3.30;;;;;;;17.91;31.93;102476.59;5025874;28;20483;-55
2023/04/19 10:30:27;;;;;;;5.95;3.00;;;;;;;17.91;30.83;102471.22;5023174;28;20033;-53
2023/04/19 10:32:55;;;;;;;5.40;2.75;;;;;;;18.03;30.62;102466.66;5023013;28;20483;-53
2023/04/19 10:35:43;;;;;;;9.57;3.03;;;;;;;18.29;33.42;102483.31;5022353;28;20478;-54
2023/04/19 10:38:11;;;;;;;3.45;2.58;;;;;;;18.06;28.84;102468.25;5031123;28;20120;-53
2023/04/19 10:40:55;;;;;;;6.93;2.85;;;;;;;18.10;30.95;102465.19;5029549;28;20053;-53
2023/04/19 10:43:25;;;;;;;3.28;2.38;;;;;;;17.83;29.42;102473.66;5021237;28;20075;-55
2023/04/19 10:45:51;;;;;;;5.68;2.55;;;;;;;17.69;28.69;102477.47;5021522;28;20025;-52
2023/04/19 10:48:32;;;;;;;8.77;2.50;;;;;;;17.78;30.57;102466.94;5021769;28;20469;-54
2023/04/19 10:51:03;;;;;;;4.97;2.80;;;;;;;17.79;29.39;102455.22;5020469;28;20029;-54
2023/04/19 10:53:52;;;;;;;4.63;2.13;;;;;;;18.08;31.36;102464.44;5027659;28;20419;-52
2023/04/19 10:56:40;;;;;;;5.00;2.33;;;;;;;18.06;28.27;102458.34;5020554;28;20089;-54
2023/04/19 10:59:10;;;;;;;8.05;2.28;;;;;;;17.98;27.82;102465.34;5020701;28;20037;-52
2023/04/19 11:01:43;;;;;;;5.32;1.75;;;;;;;17.97;28.16;102451.06;5020743;28;20041;-51
2023/04/19 11:04:16;;;;;;;3.03;1.80;;;;;;;18.00;27.38;102449.94;5020638;28;20025;-54
2023/04/19 11:06:54;;;;;;;3.22;1.90;;;;;;;18.04;27.63;102448.72;5026074;28;20036;-53
2023/04/19 11:09:25;;;;;;;5.50;2.20;;;;;;;17.90;27.33;102452.53;5026673;28;20025;-57
2023/04/19 11:12:00;;;;;;;2.90;2.00;;;;;;;17.99;27.93;102453.63;5028909;28;20064;-50
2023/04/19 11:14:29;;;;;;;2.35;2.05;;;;;;;17.88;26.77;102439.22;5019546;28;20044;-56
2023/04/19 11:16:54;;;;;;;3.88;1.90;;;;;;;18.08;27.90;102442.94;5025054;28;20029;-54
2023/04/19 11:19:20;;;;;;;5.47;1.90;;;;;;;18.17;27.89;102451.22;5032061;28;20120;-52